createdAt,value
2018-10-11T00:00:02.098Z,35.93
2018-10-11T00:02:30.471Z,36.50
2018-10-11T00:04:58.860Z,36.53
2018-10-11T00:07:27.251Z,33.77
2018-10-11T00:09:55.695Z,35.90
2018-10-11T00:12:24.483Z,36.00
2018-10-11T00:14:52.908Z,36.73
2018-10-11T00:17:21.285Z,38.70
2018-10-11T00:19:49.716Z,36.60
2018-10-11T00:22:18.280Z,37.80
2018-10-11T00:24:46.659Z,37.73
2018-10-11T00:27:15.079Z,37.63
2018-10-11T00:29:43.496Z,37.43
2018-10-11T00:32:11.894Z,36.60
2018-10-11T00:34:40.498Z,37.13
2018-10-11T00:37:08.886Z,39.17
2018-10-11T00:39:37.271Z,40.17
2018-10-11T00:42:06.020Z,42.30
2018-10-11T00:44:34.410Z,39.60
2018-10-11T00:47:03.307Z,40.00
2018-10-11T00:49:31.702Z,40.20
2018-10-11T00:52:00.264Z,40.37
2018-10-11T00:54:28.635Z,39.93
2018-10-11T00:56:57.026Z,42.30
2018-10-11T00:59:25.462Z,39.17
2018-10-11T01:01:53.884Z,39.50
2018-10-11T01:04:22.271Z,42.90
2018-10-11T01:06:50.665Z,42.70
2018-10-11T01:09:19.067Z,39.90
2018-10-11T01:11:47.627Z,43.67
2018-10-11T01:14:15.994Z,41.30
2018-10-11T01:16:44.403Z,44.47
2018-10-11T01:19:12.808Z,43.07
2018-10-11T01:21:41.203Z,42.17
2018-10-11T01:24:09.649Z,42.03
2018-10-11T01:26:38.038Z,42.50
2018-10-11T01:29:06.480Z,41.37
2018-10-11T01:31:34.859Z,43.73
2018-10-11T01:34:03.251Z,43.33
2018-10-11T01:36:31.970Z,43.30
2018-10-11T01:39:00.373Z,42.63
2018-10-11T01:41:28.771Z,43.13
2018-10-11T01:43:57.231Z,43.10
2018-10-11T01:46:25.963Z,42.53
2018-10-11T01:48:54.369Z,42.30
2018-10-11T01:51:22.769Z,42.13
2018-10-11T01:53:51.180Z,41.80
2018-10-11T01:56:19.579Z,43.37
2018-10-11T01:58:48.009Z,43.80
2018-10-11T02:01:16.435Z,43.13
2018-10-11T02:03:45.347Z,45.07
2018-10-11T02:06:13.764Z,49.43
2018-10-11T02:08:42.248Z,44.67
2018-10-11T02:11:10.660Z,43.50
2018-10-11T02:13:39.100Z,45.57
2018-10-11T02:16:07.538Z,43.63
2018-10-11T02:18:35.964Z,44.70
2018-10-11T02:21:04.355Z,42.73
2018-10-11T02:23:32.795Z,42.33
2018-10-11T02:26:01.219Z,45.97
2018-10-11T02:28:29.699Z,42.33
2018-10-11T02:30:58.103Z,40.70
2018-10-11T02:33:26.616Z,42.27
2018-10-11T02:35:55.337Z,41.37
2018-10-11T02:38:23.815Z,41.73
2018-10-11T02:40:52.242Z,41.93
2018-10-11T02:43:20.693Z,40.50
2018-10-11T02:45:49.119Z,39.43
2018-10-11T02:48:17.529Z,38.93
2018-10-11T02:50:46.004Z,39.60
2018-10-11T02:53:14.416Z,40.40
2018-10-11T02:55:42.882Z,37.87
2018-10-11T02:58:22.599Z,39.70
2018-10-11T03:00:52.308Z,40.20
2018-10-11T03:03:24.344Z,39.93
2018-10-11T03:05:52.844Z,39.70
2018-10-11T03:08:22.894Z,37.90
2018-10-11T03:10:52.143Z,39.37
2018-10-11T03:13:20.550Z,39.93
2018-10-11T03:15:49.019Z,39.53
2018-10-11T03:18:18.290Z,39.90
2018-10-11T03:20:46.706Z,40.97
2018-10-11T03:23:15.834Z,40.13
2018-10-11T03:25:45.255Z,40.63
2018-10-11T03:28:15.127Z,41.67
2018-10-11T03:30:44.188Z,40.90
2018-10-11T03:33:13.594Z,42.73
2018-10-11T03:35:43.108Z,40.97
2018-10-11T03:38:11.845Z,37.70
2018-10-11T03:40:40.305Z,40.67
2018-10-11T03:43:08.703Z,41.60
2018-10-11T03:45:37.176Z,40.33
2018-10-11T03:48:05.607Z,37.67
2018-10-11T03:50:34.040Z,40.60
2018-10-11T03:53:02.463Z,39.63
2018-10-11T03:55:30.886Z,40.10
2018-10-11T03:57:59.342Z,40.17
2018-10-11T04:00:27.791Z,39.27
2018-10-11T04:02:56.356Z,39.73
2018-10-11T04:05:25.156Z,39.63
2018-10-11T04:07:53.647Z,40.07
2018-10-11T04:10:22.055Z,39.60
2018-10-11T04:12:50.511Z,40.23
2018-10-11T04:15:18.932Z,40.47
2018-10-11T04:17:47.423Z,37.63
2018-10-11T04:20:15.840Z,37.53
2018-10-11T04:22:44.276Z,39.03
2018-10-11T04:25:12.682Z,40.77
2018-10-11T04:27:41.119Z,38.70
2018-10-11T04:30:10.299Z,38.03
2018-10-11T04:32:39.191Z,37.63
2018-10-11T04:35:07.640Z,37.03
2018-10-11T04:37:36.063Z,36.77
2018-10-11T04:40:04.527Z,37.87
2018-10-11T04:42:32.962Z,35.70
2018-10-11T04:45:01.398Z,37.40
2018-10-11T04:47:30.237Z,38.67
2018-10-11T04:49:58.732Z,36.43
2018-10-11T04:52:27.179Z,37.03
2018-10-11T04:54:55.575Z,37.00
2018-10-11T04:57:24.004Z,35.53
2018-10-11T04:59:52.466Z,35.73
2018-10-11T05:02:21.039Z,33.80
2018-10-11T05:04:49.447Z,34.93
2018-10-11T05:07:17.893Z,33.37
2018-10-11T05:09:47.348Z,36.27
2018-10-11T05:12:15.832Z,35.40
2018-10-11T05:14:44.736Z,34.17
2018-10-11T05:17:13.526Z,35.10
2018-10-11T05:19:42.187Z,36.13
2018-10-11T05:22:10.670Z,36.37
2018-10-11T05:24:39.135Z,34.27
2018-10-11T05:27:09.799Z,35.93
2018-10-11T05:29:38.239Z,34.47
2018-10-11T05:32:06.784Z,34.77
2018-10-11T05:34:35.382Z,36.63
2018-10-11T05:37:03.775Z,38.20
2018-10-11T05:39:32.271Z,37.57
2018-10-11T05:42:00.710Z,37.07
2018-10-11T05:44:29.235Z,36.90
2018-10-11T05:46:57.842Z,36.73
2018-10-11T05:49:26.695Z,38.50
2018-10-11T05:51:55.140Z,36.93
2018-10-11T05:54:23.752Z,37.10
2018-10-11T05:56:52.443Z,35.20
2018-10-11T05:59:21.308Z,36.27
2018-10-11T06:01:49.747Z,34.67
2018-10-11T06:04:18.601Z,37.17
2018-10-11T06:06:48.686Z,36.03
2018-10-11T06:09:17.184Z,36.73
2018-10-11T06:11:46.108Z,35.77
2018-10-11T06:14:15.364Z,35.23
2018-10-11T06:16:44.464Z,36.50
2018-10-11T06:19:14.235Z,36.80
2018-10-11T06:21:42.716Z,35.63
2018-10-11T06:24:11.351Z,36.60
2018-10-11T06:26:39.812Z,34.87
2018-10-11T06:29:08.297Z,34.10
2018-10-11T06:31:36.935Z,33.77
2018-10-11T06:34:05.393Z,35.30
2018-10-11T06:36:34.428Z,36.40
2018-10-11T06:39:03.106Z,34.73
2018-10-11T06:41:31.889Z,35.23
2018-10-11T06:44:00.347Z,35.77
2018-10-11T06:46:28.864Z,34.57
2018-10-11T06:48:57.322Z,35.57
2018-10-11T06:51:25.815Z,33.27
2018-10-11T06:53:54.235Z,35.17
2018-10-11T06:56:22.651Z,34.03
2018-10-11T06:58:51.723Z,35.43
2018-10-11T07:01:20.126Z,35.20
2018-10-11T07:03:48.541Z,33.57
2018-10-11T07:06:16.960Z,33.60
2018-10-11T07:08:45.359Z,33.53
2018-10-11T07:11:13.882Z,32.70
2018-10-11T07:13:42.638Z,33.23
2018-10-11T07:16:11.242Z,34.57
2018-10-11T07:18:39.674Z,31.07
2018-10-11T07:21:08.157Z,30.93
2018-10-11T07:23:36.619Z,32.47
2018-10-11T07:26:06.013Z,30.13
2018-10-11T08:16:20.623Z,26.57
2018-10-11T08:18:49.252Z,25.87
2018-10-11T08:21:19.268Z,24.70
2018-10-11T08:23:47.868Z,25.60
2018-10-11T08:26:16.679Z,24.97
2018-10-11T08:28:44.902Z,25.97
2018-10-11T08:31:13.678Z,25.60
2018-10-11T08:33:42.067Z,25.37
2018-10-11T08:36:11.491Z,24.73
2018-10-11T08:38:40.117Z,24.83
2018-10-11T08:41:09.250Z,24.30
2018-10-11T08:43:37.681Z,23.60
2018-10-11T08:46:07.143Z,23.80
2018-10-11T08:48:35.614Z,24.50
2018-10-11T08:51:04.250Z,23.30
2018-10-11T08:53:32.751Z,22.70
2018-10-11T08:56:01.412Z,22.43
2018-10-11T08:58:29.923Z,22.90
2018-10-11T09:00:58.352Z,22.37
2018-10-11T09:03:26.812Z,20.93
2018-10-11T09:05:55.433Z,21.53
2018-10-11T09:08:23.847Z,21.30
2018-10-11T09:10:52.264Z,20.90
2018-10-11T09:13:20.866Z,20.87
2018-10-11T09:15:49.272Z,21.33
2018-10-11T09:18:18.432Z,21.80
2018-10-11T09:20:46.911Z,21.60
2018-10-11T09:23:15.350Z,19.90
2018-10-11T09:25:43.800Z,19.57
2018-10-11T09:28:12.259Z,21.23
2018-10-11T09:37:44.315Z,18.80
2018-10-11T09:40:12.798Z,19.60
2018-10-11T09:42:41.235Z,18.83
2018-10-11T09:45:09.695Z,19.47
2018-10-11T09:47:38.479Z,19.50
2018-10-11T09:50:07.032Z,18.47
2018-10-11T09:52:35.644Z,18.53
2018-10-11T09:55:04.120Z,18.03
2018-10-11T09:57:34.648Z,18.60
2018-10-11T10:00:04.578Z,17.70
2018-10-11T10:02:33.190Z,17.20
2018-10-11T10:05:02.849Z,17.77
2018-10-11T10:07:31.608Z,17.43
2018-10-11T10:10:00.114Z,17.07
2018-10-11T10:12:28.658Z,18.20
2018-10-11T10:14:57.114Z,18.10
2018-10-11T10:17:25.580Z,15.37
2018-10-11T10:19:54.030Z,16.90
2018-10-11T10:22:22.470Z,16.07
2018-10-11T10:24:50.907Z,16.97
2018-10-11T10:27:19.385Z,16.43
2018-10-11T10:29:47.997Z,16.50
2018-10-11T10:32:16.407Z,17.03
2018-10-11T10:34:44.845Z,15.93
2018-10-11T10:37:13.276Z,16.70
2018-10-11T10:39:41.748Z,17.37
2018-10-11T10:42:10.158Z,16.40
2018-10-11T10:44:38.742Z,14.67
2018-10-11T10:47:07.666Z,15.97
2018-10-11T10:49:36.188Z,14.43
2018-10-11T10:52:05.308Z,15.03
2018-10-11T10:54:35.018Z,13.97
2018-10-11T10:57:04.087Z,14.07
2018-10-11T10:59:32.911Z,12.97
2018-10-11T11:02:01.588Z,14.20
2018-10-11T11:04:30.257Z,13.37
2018-10-11T11:06:59.039Z,14.27
2018-10-11T11:09:27.638Z,12.77
2018-10-11T11:11:56.287Z,12.73
2018-10-11T11:14:24.852Z,13.57
2018-10-11T11:16:53.439Z,11.37
2018-10-11T11:19:22.135Z,12.20
2018-10-11T11:21:50.863Z,11.57
2018-10-11T11:24:19.338Z,12.30
2018-10-11T11:26:47.868Z,12.20
2018-10-11T11:29:16.366Z,11.23
2018-10-11T11:31:44.876Z,10.83
2018-10-11T11:34:13.368Z,9.70
2018-10-11T11:36:41.919Z,9.73
2018-10-11T11:39:10.761Z,9.30
2018-10-11T11:41:39.346Z,9.50
2018-10-11T11:44:08.183Z,9.30
2018-10-11T11:46:36.671Z,10.00
2018-10-11T11:49:05.220Z,10.60
2018-10-11T11:51:33.699Z,8.80
2018-10-11T11:54:02.234Z,9.20
2018-10-11T11:56:30.708Z,8.20
2018-10-11T11:58:59.179Z,8.50
2018-10-11T12:01:27.724Z,9.17
2018-10-11T12:03:56.247Z,8.93
2018-10-11T12:06:24.700Z,8.67
2018-10-11T12:08:53.228Z,9.37
2018-10-11T12:11:21.693Z,8.07
2018-10-11T12:13:50.170Z,7.27
2018-10-11T12:16:18.655Z,7.67
2018-10-11T12:18:47.143Z,7.53
2018-10-11T12:21:15.616Z,7.53
2018-10-11T12:23:44.144Z,7.50
2018-10-11T12:26:13.439Z,6.97
2018-10-11T12:28:42.087Z,7.10
2018-10-11T12:31:10.639Z,7.00
2018-10-11T12:33:39.133Z,7.07
2018-10-11T12:36:07.991Z,7.47
2018-10-11T12:38:36.526Z,7.10
2018-10-11T12:41:05.196Z,7.37
2018-10-11T12:43:33.701Z,7.60
2018-10-11T12:46:02.197Z,6.53
2018-10-11T12:48:30.694Z,7.83
2018-10-11T12:50:59.883Z,7.67
2018-10-11T12:53:28.420Z,7.00
2018-10-11T12:55:56.911Z,6.80
2018-10-11T12:58:25.384Z,7.30
2018-10-11T13:00:53.920Z,6.50
2018-10-11T13:03:22.634Z,6.73
2018-10-11T13:05:51.482Z,7.00
2018-10-11T13:08:20.101Z,8.43
2018-10-11T13:10:48.688Z,7.90
2018-10-11T13:13:17.308Z,7.20
2018-10-11T13:15:48.999Z,7.40
2018-10-11T13:18:22.632Z,7.70
2018-10-11T13:20:51.466Z,6.43
2018-10-11T13:23:20.810Z,7.10
2018-10-11T13:25:50.487Z,6.63
2018-10-11T13:28:19.032Z,7.07
2018-10-11T13:30:49.717Z,6.70
2018-10-11T13:33:18.326Z,6.77
2018-10-11T13:35:46.907Z,6.37
2018-10-11T13:38:15.471Z,7.20
2018-10-11T13:40:44.627Z,6.47
2018-10-11T13:43:13.115Z,6.07
2018-10-11T13:45:42.503Z,6.00
2018-10-11T13:48:11.079Z,6.30
2018-10-11T13:50:46.068Z,6.27
2018-10-11T13:53:18.366Z,6.10
2018-10-11T13:55:48.705Z,6.00
2018-10-11T13:58:12.659Z,6.20
2018-10-11T14:00:41.268Z,6.37
2018-10-11T14:03:09.919Z,6.07
2018-10-11T14:05:38.379Z,6.13
2018-10-11T14:08:06.967Z,5.20
2018-10-11T14:10:35.549Z,6.20
2018-10-11T14:13:11.067Z,5.73
2018-10-11T14:15:34.482Z,5.73
2018-10-11T14:18:07.631Z,5.60
2018-10-11T14:20:32.911Z,6.07
2018-10-11T14:23:01.453Z,5.70
2018-10-11T14:25:29.978Z,6.40
2018-10-11T14:27:58.466Z,5.97
2018-10-11T14:30:26.931Z,5.40
2018-10-11T14:32:55.432Z,5.50
2018-10-11T14:35:23.948Z,5.60
2018-10-11T14:37:52.418Z,5.80
2018-10-11T14:40:20.926Z,5.10
2018-10-11T14:42:49.647Z,5.90
2018-10-11T14:45:18.344Z,5.67
2018-10-11T14:47:46.928Z,5.77
2018-10-11T14:50:15.688Z,6.17
2018-10-11T14:52:44.355Z,5.47
2018-10-11T14:55:12.971Z,5.63
2018-10-11T14:57:41.478Z,4.77
2018-10-11T15:00:10.595Z,5.33
2018-10-11T15:02:39.113Z,5.50
2018-10-11T15:05:07.867Z,5.30
2018-10-11T15:07:36.379Z,5.63
2018-10-11T15:10:05.572Z,6.10
2018-10-11T15:12:34.392Z,5.93
2018-10-11T15:15:02.948Z,6.73
2018-10-11T15:17:32.234Z,6.33
2018-10-11T15:20:01.192Z,6.00
2018-10-11T15:22:29.767Z,5.90
2018-10-11T15:24:58.937Z,4.90
2018-10-11T15:27:27.443Z,6.30
2018-10-11T15:29:56.074Z,6.77
2018-10-11T15:32:24.808Z,5.63
2018-10-11T15:34:53.334Z,5.37
2018-10-11T15:37:22.009Z,5.80
2018-10-11T15:39:50.544Z,6.10
2018-10-11T15:42:19.214Z,5.77
2018-10-11T15:44:47.937Z,6.30
2018-10-11T15:47:16.505Z,6.00
2018-10-11T15:49:45.024Z,6.10
2018-10-11T15:52:13.695Z,6.20
2018-10-11T15:54:42.411Z,5.50
2018-10-11T15:57:11.125Z,5.80
2018-10-11T15:59:39.871Z,5.47
2018-10-11T16:02:09.055Z,5.63
2018-10-11T16:04:37.573Z,6.00
2018-10-11T16:07:06.363Z,5.47
2018-10-11T16:09:34.913Z,6.10
2018-10-11T16:12:03.577Z,5.80
2018-10-11T16:14:32.191Z,7.13
2018-10-11T16:17:00.666Z,5.80
2018-10-11T16:19:29.114Z,6.73
2018-10-11T16:21:57.666Z,6.53
2018-10-11T16:24:26.139Z,6.73
2018-10-11T16:26:54.648Z,6.57
2018-10-11T16:29:23.149Z,6.90
2018-10-11T16:31:51.647Z,7.03
2018-10-11T16:34:20.144Z,7.33
2018-10-11T16:36:48.646Z,7.47
2018-10-11T16:39:17.204Z,7.17
2018-10-11T16:41:45.862Z,7.60
2018-10-11T16:44:14.330Z,8.73
2018-10-11T16:46:42.831Z,9.00
2018-10-11T16:49:11.319Z,8.13
2018-10-11T16:51:40.088Z,7.97
2018-10-11T16:54:09.662Z,8.93
2018-10-11T16:56:38.162Z,8.77
2018-10-11T16:59:06.987Z,8.43
2018-10-11T17:01:35.642Z,8.50
2018-10-11T17:04:04.159Z,8.00
2018-10-11T17:06:32.832Z,9.23
2018-10-11T17:09:01.325Z,9.03
2018-10-11T17:11:29.930Z,8.53
2018-10-11T17:13:58.472Z,8.37
2018-10-11T17:16:26.951Z,8.30
2018-10-11T17:18:55.457Z,9.23
2018-10-11T17:21:24.009Z,8.97
2018-10-11T17:23:52.654Z,8.93
2018-10-11T17:26:21.165Z,8.83
2018-10-11T17:28:49.716Z,9.10
2018-10-11T17:31:18.175Z,9.37
2018-10-11T17:33:46.671Z,8.40
2018-10-11T17:36:15.170Z,9.10
2018-10-11T17:38:43.690Z,8.83
2018-10-11T17:41:12.184Z,8.60
2018-10-11T17:43:40.717Z,9.33
2018-10-11T17:46:09.370Z,8.67
2018-10-11T17:48:38.074Z,9.27
2018-10-11T17:51:06.742Z,8.83
2018-10-11T17:53:35.259Z,9.27
2018-10-11T17:56:04.244Z,8.70
2018-10-11T17:58:32.734Z,9.20
2018-10-11T18:01:01.271Z,9.30
2018-10-11T18:03:29.856Z,9.13
2018-10-11T18:05:58.414Z,8.50
2018-10-11T18:08:26.943Z,8.67
2018-10-11T18:10:55.462Z,9.37
2018-10-11T18:13:23.971Z,9.70
2018-10-11T18:15:52.460Z,8.97
2018-10-11T18:18:20.990Z,8.87
2018-10-11T18:20:49.497Z,9.73
2018-10-11T18:23:18.527Z,9.07
2018-10-11T18:25:47.047Z,9.23
2018-10-11T18:28:15.581Z,9.20
2018-10-11T18:30:44.146Z,9.47
2018-10-11T18:33:12.692Z,9.97
2018-10-11T18:35:41.260Z,9.37
2018-10-11T18:38:09.905Z,10.03
2018-10-11T18:40:38.404Z,11.00
2018-10-11T18:43:06.982Z,9.63
2018-10-11T18:45:35.462Z,10.50
2018-10-11T18:48:03.995Z,9.87
2018-10-11T18:50:32.696Z,9.33
2018-10-11T18:53:01.224Z,9.73
2018-10-11T18:55:31.713Z,10.20
2018-10-11T18:58:00.241Z,9.77
2018-10-11T19:00:29.037Z,9.73
2018-10-11T19:02:57.550Z,9.93
2018-10-11T19:05:26.048Z,10.33
2018-10-11T19:07:54.654Z,10.53
2018-10-11T19:10:23.802Z,9.87
2018-10-11T19:12:52.349Z,9.83
2018-10-11T19:15:20.815Z,9.73
2018-10-11T19:17:49.886Z,10.07
2018-10-11T19:20:18.497Z,10.07
2018-10-11T19:22:48.002Z,11.27
2018-10-11T19:25:16.517Z,10.67
2018-10-11T19:27:46.541Z,10.77
2018-10-11T19:30:15.031Z,11.13
2018-10-11T19:32:44.378Z,10.93
2018-10-11T19:35:12.964Z,10.37
2018-10-11T19:37:41.641Z,10.83
2018-10-11T19:40:10.455Z,10.40
2018-10-11T19:42:38.983Z,11.07
2018-10-11T19:45:07.627Z,11.00
2018-10-11T19:47:36.154Z,11.87
2018-10-11T19:50:05.093Z,12.73
2018-10-11T19:52:33.573Z,11.17
2018-10-11T19:55:02.362Z,11.57
2018-10-11T19:57:30.904Z,11.07
2018-10-11T19:59:59.479Z,11.03
2018-10-11T20:02:28.378Z,11.73
2018-10-11T20:04:57.284Z,11.93
2018-10-11T20:07:26.139Z,11.53
2018-10-11T20:09:54.658Z,12.30
2018-10-11T20:12:24.593Z,11.87
2018-10-11T20:14:53.228Z,11.80
2018-10-11T20:18:46.142Z,11.80
2018-10-11T20:21:15.299Z,12.80
2018-10-11T20:23:43.803Z,12.40
2018-10-11T20:26:13.052Z,12.23
2018-10-11T20:28:41.612Z,12.20
2018-10-11T20:31:10.153Z,13.13
2018-10-11T20:33:38.633Z,13.83
2018-10-11T20:36:07.184Z,13.20
2018-10-11T20:38:35.963Z,12.13
2018-10-11T20:41:04.495Z,12.20
2018-10-11T20:43:33.172Z,12.80
2018-10-11T20:46:02.458Z,12.97
2018-10-11T20:48:31.468Z,12.93
2018-10-11T20:51:00.138Z,12.63
2018-10-11T20:53:29.083Z,12.77
2018-10-11T20:55:57.577Z,13.70
2018-10-11T20:58:26.143Z,13.40
2018-10-11T21:00:54.679Z,15.43
2018-10-11T21:03:23.197Z,13.53
2018-10-11T21:05:51.728Z,15.67
2018-10-11T21:08:20.664Z,15.53
2018-10-11T21:10:49.565Z,14.33
2018-10-11T21:13:18.080Z,15.47
2018-10-11T21:15:46.580Z,16.23
2018-10-11T21:18:15.418Z,16.73
2018-10-11T21:20:43.882Z,16.07
2018-10-11T21:23:12.720Z,14.70
2018-10-11T21:25:41.207Z,16.17
2018-10-11T21:28:09.831Z,15.03
2018-10-11T21:30:38.494Z,15.90
2018-10-11T21:33:07.207Z,15.83
2018-10-11T21:35:36.011Z,16.53
2018-10-11T21:38:04.560Z,16.83
2018-10-11T21:40:33.030Z,16.60
2018-10-11T21:43:01.545Z,17.60
2018-10-11T21:45:30.066Z,15.87
2018-10-11T21:47:58.567Z,17.10
2018-10-11T21:50:28.046Z,16.43
2018-10-11T21:52:56.886Z,17.00
2018-10-11T21:55:25.572Z,16.77
2018-10-11T21:57:54.479Z,16.50
2018-10-11T22:00:28.062Z,16.87
2018-10-11T22:02:57.143Z,16.43
2018-10-11T22:05:25.667Z,17.13
2018-10-11T22:07:54.562Z,16.90
2018-10-11T22:10:23.317Z,17.77
2018-10-11T22:12:52.695Z,16.73
2018-10-11T22:15:21.274Z,18.23
2018-10-11T22:17:49.822Z,17.57
2018-10-11T22:20:18.392Z,18.30
2018-10-11T22:22:46.967Z,17.60
2018-10-11T22:25:15.600Z,17.93
2018-10-11T22:27:44.144Z,17.70
2018-10-11T22:30:12.684Z,18.40
2018-10-11T22:32:41.239Z,18.53
2018-10-11T22:35:10.247Z,16.63
2018-10-11T22:37:39.617Z,17.07
2018-10-11T22:40:08.147Z,17.47
2018-10-11T22:42:36.780Z,17.17
2018-10-11T22:45:05.358Z,17.57
2018-10-11T22:47:33.923Z,17.67
2018-10-11T22:50:02.471Z,17.43
2018-10-11T22:52:30.955Z,17.60
2018-10-11T22:54:59.811Z,17.87
2018-10-11T22:57:28.671Z,18.13
2018-10-11T22:59:57.203Z,18.33
2018-10-11T23:02:25.644Z,18.53
2018-10-11T23:04:54.146Z,17.70
2018-10-11T23:07:22.611Z,18.00
2018-10-11T23:09:51.074Z,17.97
2018-10-11T23:12:19.574Z,18.47
2018-10-11T23:14:48.304Z,17.33
2018-10-11T23:17:16.870Z,18.50
2018-10-11T23:19:45.316Z,17.77
2018-10-11T23:22:13.767Z,17.43
2018-10-11T23:24:42.247Z,17.23
2018-10-11T23:27:10.720Z,18.63
2018-10-11T23:29:39.163Z,18.47
2018-10-11T23:32:07.667Z,19.03
2018-10-11T23:34:36.120Z,19.67
2018-10-11T23:37:04.586Z,18.70
2018-10-11T23:39:33.078Z,18.57
2018-10-11T23:42:01.531Z,20.00
2018-10-11T23:44:29.974Z,20.23
2018-10-11T23:46:58.448Z,20.50
2018-10-11T23:49:27.182Z,20.97
2018-10-11T23:51:55.650Z,21.93
2018-10-11T23:54:24.242Z,21.13
2018-10-11T23:56:52.951Z,20.47
2018-10-11T23:59:21.403Z,19.50
